sensor_id;sensor_type;location;lat;lon;timestamp;P1;durP1;ratioP1;P2;durP2;ratioP2
66327;SDS011;53133;52.862;6.602;2023-07-08T00:02:23;7.07;;;4.15;;
66327;SDS011;53133;52.862;6.602;2023-07-08T00:04:49;7.82;;;4.90;;
66327;SDS011;53133;52.862;6.602;2023-07-08T00:07:21;8.00;;;4.88;;
66327;SDS011;53133;52.862;6.602;2023-07-08T00:09:47;7.45;;;4.53;;
66327;SDS011;53133;52.862;6.602;2023-07-08T00:12:13;7.93;;;5.22;;
66327;SDS011;53133;52.862;6.602;2023-07-08T00:14:38;6.05;;;4.30;;
66327;SDS011;53133;52.862;6.602;2023-07-08T00:17:08;7.10;;;4.53;;
66327;SDS011;53133;52.862;6.602;2023-07-08T00:19:36;8.52;;;4.70;;
66327;SDS011;53133;52.862;6.602;2023-07-08T00:22:04;6.93;;;4.75;;
66327;SDS011;53133;52.862;6.602;2023-07-08T00:24:38;8.57;;;5.15;;
66327;SDS011;53133;52.862;6.602;2023-07-08T00:27:04;7.80;;;4.50;;
66327;SDS011;53133;52.862;6.602;2023-07-08T00:29:29;6.55;;;4.28;;
66327;SDS011;53133;52.862;6.602;2023-07-08T00:31:55;6.72;;;4.97;;
66327;SDS011;53133;52.862;6.602;2023-07-08T00:34:20;9.35;;;5.00;;
66327;SDS011;53133;52.862;6.602;2023-07-08T00:36:46;6.10;;;4.70;;
66327;SDS011;53133;52.862;6.602;2023-07-08T00:39:12;6.22;;;4.93;;
66327;SDS011;53133;52.862;6.602;2023-07-08T00:41:39;7.35;;;5.57;;
66327;SDS011;53133;52.862;6.602;2023-07-08T00:44:08;8.60;;;5.15;;
66327;SDS011;53133;52.862;6.602;2023-07-08T00:46:50;8.40;;;4.78;;
66327;SDS011;53133;52.862;6.602;2023-07-08T00:52:13;10.30;;;5.45;;
66327;SDS011;53133;52.862;6.602;2023-07-08T00:54:59;7.50;;;4.65;;
66327;SDS011;53133;52.862;6.602;2023-07-08T00:57:30;7.03;;;5.40;;
66327;SDS011;53133;52.862;6.602;2023-07-08T01:00:06;7.55;;;5.10;;
66327;SDS011;53133;52.862;6.602;2023-07-08T01:02:39;7.40;;;5.07;;
66327;SDS011;53133;52.862;6.602;2023-07-08T01:05:16;10.05;;;4.90;;
66327;SDS011;53133;52.862;6.602;2023-07-08T01:07:45;10.00;;;5.95;;
66327;SDS011;53133;52.862;6.602;2023-07-08T01:10:17;8.05;;;5.00;;
66327;SDS011;53133;52.862;6.602;2023-07-08T01:12:51;8.05;;;5.05;;
66327;SDS011;53133;52.862;6.602;2023-07-08T01:15:21;8.40;;;5.30;;
66327;SDS011;53133;52.862;6.602;2023-07-08T01:17:51;7.65;;;5.18;;
66327;SDS011;53133;52.862;6.602;2023-07-08T01:20:18;8.88;;;5.53;;
66327;SDS011;53133;52.862;6.602;2023-07-08T01:22:44;8.68;;;5.05;;
66327;SDS011;53133;52.862;6.602;2023-07-08T01:25:10;10.00;;;5.03;;
66327;SDS011;53133;52.862;6.602;2023-07-08T01:27:39;9.15;;;5.30;;
66327;SDS011;53133;52.862;6.602;2023-07-08T01:30:08;5.90;;;5.03;;
66327;SDS011;53133;52.862;6.602;2023-07-08T01:32:36;8.63;;;5.75;;
66327;SDS011;53133;52.862;6.602;2023-07-08T01:35:04;7.55;;;5.70;;
66327;SDS011;53133;52.862;6.602;2023-07-08T01:40:16;7.63;;;5.07;;
66327;SDS011;53133;52.862;6.602;2023-07-08T01:42:49;6.72;;;4.93;;
66327;SDS011;53133;52.862;6.602;2023-07-08T01:45:16;8.02;;;5.38;;
66327;SDS011;53133;52.862;6.602;2023-07-08T01:47:44;7.85;;;4.97;;
66327;SDS011;53133;52.862;6.602;2023-07-08T01:50:32;10.10;;;5.93;;
66327;SDS011;53133;52.862;6.602;2023-07-08T01:53:00;7.93;;;5.50;;
66327;SDS011;53133;52.862;6.602;2023-07-08T01:55:31;7.38;;;5.60;;
66327;SDS011;53133;52.862;6.602;2023-07-08T01:57:57;7.90;;;5.35;;
66327;SDS011;53133;52.862;6.602;2023-07-08T02:00:23;7.55;;;5.40;;
66327;SDS011;53133;52.862;6.602;2023-07-08T02:02:49;10.60;;;5.30;;
66327;SDS011;53133;52.862;6.602;2023-07-08T02:05:15;8.70;;;5.55;;
66327;SDS011;53133;52.862;6.602;2023-07-08T02:07:41;9.65;;;5.70;;
66327;SDS011;53133;52.862;6.602;2023-07-08T02:10:07;8.45;;;5.40;;
66327;SDS011;53133;52.862;6.602;2023-07-08T02:12:33;12.10;;;5.80;;
66327;SDS011;53133;52.862;6.602;2023-07-08T02:14:59;9.38;;;6.00;;
66327;SDS011;53133;52.862;6.602;2023-07-08T02:17:26;10.38;;;5.75;;
66327;SDS011;53133;52.862;6.602;2023-07-08T02:19:53;8.70;;;5.80;;
66327;SDS011;53133;52.862;6.602;2023-07-08T02:22:20;8.38;;;5.95;;
66327;SDS011;53133;52.862;6.602;2023-07-08T02:24:45;9.18;;;5.85;;
66327;SDS011;53133;52.862;6.602;2023-07-08T02:27:11;8.05;;;5.85;;
66327;SDS011;53133;52.862;6.602;2023-07-08T02:29:37;9.38;;;5.72;;
66327;SDS011;53133;52.862;6.602;2023-07-08T02:32:03;9.07;;;5.65;;
66327;SDS011;53133;52.862;6.602;2023-07-08T02:34:29;8.10;;;5.80;;
66327;SDS011;53133;52.862;6.602;2023-07-08T02:36:55;9.00;;;6.22;;
66327;SDS011;53133;52.862;6.602;2023-07-08T02:39:21;7.00;;;5.28;;
66327;SDS011;53133;52.862;6.602;2023-07-08T02:41:47;7.78;;;6.03;;
66327;SDS011;53133;52.862;6.602;2023-07-08T02:44:13;8.10;;;5.47;;
66327;SDS011;53133;52.862;6.602;2023-07-08T02:46:39;8.15;;;6.05;;
66327;SDS011;53133;52.862;6.602;2023-07-08T02:49:04;9.15;;;6.50;;
66327;SDS011;53133;52.862;6.602;2023-07-08T02:51:30;9.48;;;5.60;;
66327;SDS011;53133;52.862;6.602;2023-07-08T02:53:56;8.25;;;6.10;;
66327;SDS011;53133;52.862;6.602;2023-07-08T02:56:22;8.80;;;6.13;;
66327;SDS011;53133;52.862;6.602;2023-07-08T02:58:48;7.38;;;5.93;;
66327;SDS011;53133;52.862;6.602;2023-07-08T03:01:14;8.20;;;6.07;;
66327;SDS011;53133;52.862;6.602;2023-07-08T03:03:46;9.60;;;6.05;;
66327;SDS011;53133;52.862;6.602;2023-07-08T03:06:13;9.20;;;6.30;;
66327;SDS011;53133;52.862;6.602;2023-07-08T03:08:38;7.97;;;6.40;;
66327;SDS011;53133;52.862;6.602;2023-07-08T03:11:05;9.60;;;6.00;;
66327;SDS011;53133;52.862;6.602;2023-07-08T03:13:32;8.65;;;6.50;;
66327;SDS011;53133;52.862;6.602;2023-07-08T03:15:59;9.30;;;6.10;;
66327;SDS011;53133;52.862;6.602;2023-07-08T03:18:26;10.18;;;6.53;;
66327;SDS011;53133;52.862;6.602;2023-07-08T03:20:54;9.80;;;6.43;;
66327;SDS011;53133;52.862;6.602;2023-07-08T03:23:23;11.45;;;6.38;;
66327;SDS011;53133;52.862;6.602;2023-07-08T03:25:50;10.00;;;6.50;;
66327;SDS011;53133;52.862;6.602;2023-07-08T03:28:16;13.68;;;6.32;;
66327;SDS011;53133;52.862;6.602;2023-07-08T03:30:42;6.53;;;5.75;;
66327;SDS011;53133;52.862;6.602;2023-07-08T03:33:08;9.30;;;6.45;;
66327;SDS011;53133;52.862;6.602;2023-07-08T03:35:35;17.92;;;7.40;;
66327;SDS011;53133;52.862;6.602;2023-07-08T03:38:01;9.93;;;6.50;;
66327;SDS011;53133;52.862;6.602;2023-07-08T03:40:27;10.43;;;6.60;;
66327;SDS011;53133;52.862;6.602;2023-07-08T03:42:52;8.70;;;6.25;;
66327;SDS011;53133;52.862;6.602;2023-07-08T03:45:18;9.52;;;6.05;;
66327;SDS011;53133;52.862;6.602;2023-07-08T03:47:44;9.93;;;6.78;;
66327;SDS011;53133;52.862;6.602;2023-07-08T03:50:19;10.13;;;6.68;;
66327;SDS011;53133;52.862;6.602;2023-07-08T03:52:47;9.90;;;6.75;;
66327;SDS011;53133;52.862;6.602;2023-07-08T03:55:14;7.95;;;5.97;;
66327;SDS011;53133;52.862;6.602;2023-07-08T03:57:40;7.70;;;6.13;;
66327;SDS011;53133;52.862;6.602;2023-07-08T04:00:05;9.73;;;6.88;;
66327;SDS011;53133;52.862;6.602;2023-07-08T04:02:37;9.40;;;6.82;;
66327;SDS011;53133;52.862;6.602;2023-07-08T04:05:03;11.27;;;6.90;;
66327;SDS011;53133;52.862;6.602;2023-07-08T04:07:29;8.65;;;6.53;;
66327;SDS011;53133;52.862;6.602;2023-07-08T04:09:55;8.82;;;6.25;;
66327;SDS011;53133;52.862;6.602;2023-07-08T04:12:21;7.90;;;6.32;;
66327;SDS011;53133;52.862;6.602;2023-07-08T04:14:46;8.13;;;6.35;;
66327;SDS011;53133;52.862;6.602;2023-07-08T04:17:12;8.05;;;6.22;;
66327;SDS011;53133;52.862;6.602;2023-07-08T04:19:38;9.30;;;6.32;;
66327;SDS011;53133;52.862;6.602;2023-07-08T04:22:04;10.30;;;6.20;;
66327;SDS011;53133;52.862;6.602;2023-07-08T04:24:31;8.25;;;6.05;;
66327;SDS011;53133;52.862;6.602;2023-07-08T04:26:57;7.93;;;6.45;;
66327;SDS011;53133;52.862;6.602;2023-07-08T04:29:23;8.02;;;6.28;;
66327;SDS011;53133;52.862;6.602;2023-07-08T04:31:49;10.10;;;6.43;;
66327;SDS011;53133;52.862;6.602;2023-07-08T04:34:15;8.43;;;6.10;;
66327;SDS011;53133;52.862;6.602;2023-07-08T04:36:41;10.50;;;6.15;;
66327;SDS011;53133;52.862;6.602;2023-07-08T04:39:08;9.95;;;6.57;;
66327;SDS011;53133;52.862;6.602;2023-07-08T04:41:38;9.65;;;6.60;;
66327;SDS011;53133;52.862;6.602;2023-07-08T04:44:09;10.30;;;6.88;;
66327;SDS011;53133;52.862;6.602;2023-07-08T04:51:34;7.65;;;6.05;;
66327;SDS011;53133;52.862;6.602;2023-07-08T04:54:00;13.38;;;6.43;;
66327;SDS011;53133;52.862;6.602;2023-07-08T04:56:37;7.75;;;5.90;;
66327;SDS011;53133;52.862;6.602;2023-07-08T04:59:05;10.65;;;6.78;;
66327;SDS011;53133;52.862;6.602;2023-07-08T05:01:32;11.20;;;6.72;;
66327;SDS011;53133;52.862;6.602;2023-07-08T05:03:58;7.90;;;6.25;;
66327;SDS011;53133;52.862;6.602;2023-07-08T05:06:24;7.82;;;6.20;;
66327;SDS011;53133;52.862;6.602;2023-07-08T05:08:50;8.63;;;6.32;;
66327;SDS011;53133;52.862;6.602;2023-07-08T05:11:16;8.52;;;6.80;;
66327;SDS011;53133;52.862;6.602;2023-07-08T05:13:41;7.47;;;6.10;;
66327;SDS011;53133;52.862;6.602;2023-07-08T05:16:07;9.20;;;6.57;;
66327;SDS011;53133;52.862;6.602;2023-07-08T05:18:32;12.35;;;6.88;;
66327;SDS011;53133;52.862;6.602;2023-07-08T05:20:58;7.97;;;6.00;;
66327;SDS011;53133;52.862;6.602;2023-07-08T05:23:24;9.35;;;7.20;;
66327;SDS011;53133;52.862;6.602;2023-07-08T05:25:49;8.50;;;6.40;;
66327;SDS011;53133;52.862;6.602;2023-07-08T05:28:16;8.23;;;6.30;;
66327;SDS011;53133;52.862;6.602;2023-07-08T05:30:41;8.52;;;6.10;;
66327;SDS011;53133;52.862;6.602;2023-07-08T05:33:08;7.95;;;6.45;;
66327;SDS011;53133;52.862;6.602;2023-07-08T05:35:34;9.85;;;6.70;;
66327;SDS011;53133;52.862;6.602;2023-07-08T05:37:59;8.82;;;6.85;;
66327;SDS011;53133;52.862;6.602;2023-07-08T05:40:25;9.88;;;6.60;;
66327;SDS011;53133;52.862;6.602;2023-07-08T05:42:51;6.57;;;5.88;;
66327;SDS011;53133;52.862;6.602;2023-07-08T05:45:16;9.43;;;6.32;;
66327;SDS011;53133;52.862;6.602;2023-07-08T05:47:42;8.77;;;6.13;;
66327;SDS011;53133;52.862;6.602;2023-07-08T05:50:07;8.40;;;6.40;;
66327;SDS011;53133;52.862;6.602;2023-07-08T05:52:33;10.15;;;6.75;;
66327;SDS011;53133;52.862;6.602;2023-07-08T05:54:59;8.60;;;6.03;;
66327;SDS011;53133;52.862;6.602;2023-07-08T05:57:24;10.00;;;6.95;;
66327;SDS011;53133;52.862;6.602;2023-07-08T05:59:50;7.88;;;6.15;;
66327;SDS011;53133;52.862;6.602;2023-07-08T06:02:16;8.45;;;6.20;;
66327;SDS011;53133;52.862;6.602;2023-07-08T06:04:44;7.20;;;6.22;;
66327;SDS011;53133;52.862;6.602;2023-07-08T06:07:10;8.15;;;6.40;;
66327;SDS011;53133;52.862;6.602;2023-07-08T06:09:35;13.88;;;5.90;;
66327;SDS011;53133;52.862;6.602;2023-07-08T06:12:01;8.77;;;6.03;;
66327;SDS011;53133;52.862;6.602;2023-07-08T06:14:27;6.75;;;5.93;;
66327;SDS011;53133;52.862;6.602;2023-07-08T06:16:53;9.10;;;5.88;;
66327;SDS011;53133;52.862;6.602;2023-07-08T06:19:20;8.20;;;6.03;;
66327;SDS011;53133;52.862;6.602;2023-07-08T06:21:46;8.52;;;6.07;;
66327;SDS011;53133;52.862;6.602;2023-07-08T06:24:12;7.38;;;5.97;;
66327;SDS011;53133;52.862;6.602;2023-07-08T06:26:37;7.57;;;5.95;;
66327;SDS011;53133;52.862;6.602;2023-07-08T06:29:03;6.50;;;5.63;;
66327;SDS011;53133;52.862;6.602;2023-07-08T06:31:32;8.52;;;6.05;;
66327;SDS011;53133;52.862;6.602;2023-07-08T06:33:58;7.78;;;5.97;;
66327;SDS011;53133;52.862;6.602;2023-07-08T06:36:24;10.55;;;6.10;;
66327;SDS011;53133;52.862;6.602;2023-07-08T06:38:50;10.90;;;5.82;;
66327;SDS011;53133;52.862;6.602;2023-07-08T06:41:16;9.82;;;5.30;;
66327;SDS011;53133;52.862;6.602;2023-07-08T06:43:41;6.68;;;5.95;;
66327;SDS011;53133;52.862;6.602;2023-07-08T06:46:07;7.05;;;5.30;;
66327;SDS011;53133;52.862;6.602;2023-07-08T06:48:32;7.68;;;5.50;;
66327;SDS011;53133;52.862;6.602;2023-07-08T06:50:58;8.18;;;5.85;;
66327;SDS011;53133;52.862;6.602;2023-07-08T06:53:24;9.68;;;5.63;;
66327;SDS011;53133;52.862;6.602;2023-07-08T06:55:49;5.60;;;5.00;;
66327;SDS011;53133;52.862;6.602;2023-07-08T06:58:15;8.93;;;5.45;;
66327;SDS011;53133;52.862;6.602;2023-07-08T07:00:42;6.22;;;5.50;;
66327;SDS011;53133;52.862;6.602;2023-07-08T07:03:08;6.50;;;5.25;;
66327;SDS011;53133;52.862;6.602;2023-07-08T07:05:34;10.15;;;5.53;;
66327;SDS011;53133;52.862;6.602;2023-07-08T07:08:00;7.43;;;5.28;;
66327;SDS011;53133;52.862;6.602;2023-07-08T07:10:25;6.43;;;5.30;;
66327;SDS011;53133;52.862;6.602;2023-07-08T07:12:51;6.63;;;5.50;;
66327;SDS011;53133;52.862;6.602;2023-07-08T07:15:17;5.97;;;4.90;;
66327;SDS011;53133;52.862;6.602;2023-07-08T07:17:42;8.20;;;4.97;;
66327;SDS011;53133;52.862;6.602;2023-07-08T07:20:08;9.05;;;5.43;;
66327;SDS011;53133;52.862;6.602;2023-07-08T07:22:34;5.80;;;4.75;;
66327;SDS011;53133;52.862;6.602;2023-07-08T07:25:00;7.63;;;4.90;;
66327;SDS011;53133;52.862;6.602;2023-07-08T07:27:26;8.95;;;5.50;;
66327;SDS011;53133;52.862;6.602;2023-07-08T07:29:52;7.70;;;5.00;;
66327;SDS011;53133;52.862;6.602;2023-07-08T07:32:18;7.25;;;5.00;;
66327;SDS011;53133;52.862;6.602;2023-07-08T07:34:47;6.80;;;4.85;;
66327;SDS011;53133;52.862;6.602;2023-07-08T07:37:14;5.30;;;4.80;;
66327;SDS011;53133;52.862;6.602;2023-07-08T07:39:40;8.15;;;5.10;;
66327;SDS011;53133;52.862;6.602;2023-07-08T07:42:06;5.45;;;4.90;;
66327;SDS011;53133;52.862;6.602;2023-07-08T07:44:33;7.05;;;4.80;;
66327;SDS011;53133;52.862;6.602;2023-07-08T07:46:58;5.70;;;4.63;;
66327;SDS011;53133;52.862;6.602;2023-07-08T07:49:24;11.52;;;5.55;;
66327;SDS011;53133;52.862;6.602;2023-07-08T07:51:50;7.07;;;4.60;;
66327;SDS011;53133;52.862;6.602;2023-07-08T07:54:16;7.18;;;4.97;;
66327;SDS011;53133;52.862;6.602;2023-07-08T07:56:41;5.50;;;4.75;;
66327;SDS011;53133;52.862;6.602;2023-07-08T07:59:07;6.25;;;4.95;;
66327;SDS011;53133;52.862;6.602;2023-07-08T08:01:32;7.80;;;5.10;;
66327;SDS011;53133;52.862;6.602;2023-07-08T08:03:58;9.00;;;5.10;;
66327;SDS011;53133;52.862;6.602;2023-07-08T08:06:24;6.78;;;5.00;;
66327;SDS011;53133;52.862;6.602;2023-07-08T08:08:50;7.18;;;5.00;;
66327;SDS011;53133;52.862;6.602;2023-07-08T08:11:16;7.03;;;4.72;;
66327;SDS011;53133;52.862;6.602;2023-07-08T08:13:41;6.53;;;4.65;;
66327;SDS011;53133;52.862;6.602;2023-07-08T08:16:07;6.53;;;4.90;;
66327;SDS011;53133;52.862;6.602;2023-07-08T08:18:33;6.30;;;4.63;;
66327;SDS011;53133;52.862;6.602;2023-07-08T08:20:59;6.78;;;4.57;;
66327;SDS011;53133;52.862;6.602;2023-07-08T08:23:25;5.32;;;4.80;;
66327;SDS011;53133;52.862;6.602;2023-07-08T08:25:51;6.03;;;4.82;;
66327;SDS011;53133;52.862;6.602;2023-07-08T08:28:17;6.78;;;4.85;;
66327;SDS011;53133;52.862;6.602;2023-07-08T08:30:46;6.30;;;4.93;;
66327;SDS011;53133;52.862;6.602;2023-07-08T08:33:13;8.55;;;4.78;;
66327;SDS011;53133;52.862;6.602;2023-07-08T08:35:38;5.47;;;4.57;;
66327;SDS011;53133;52.862;6.602;2023-07-08T08:38:04;8.68;;;4.45;;
66327;SDS011;53133;52.862;6.602;2023-07-08T08:40:30;8.20;;;4.60;;
66327;SDS011;53133;52.862;6.602;2023-07-08T08:45:22;5.75;;;4.32;;
66327;SDS011;53133;52.862;6.602;2023-07-08T08:47:51;7.15;;;4.57;;
66327;SDS011;53133;52.862;6.602;2023-07-08T08:53:11;8.93;;;4.53;;
66327;SDS011;53133;52.862;6.602;2023-07-08T08:55:39;7.60;;;4.60;;
66327;SDS011;53133;52.862;6.602;2023-07-08T08:58:27;6.25;;;4.55;;
66327;SDS011;53133;52.862;6.602;2023-07-08T09:00:59;10.35;;;4.57;;
66327;SDS011;53133;52.862;6.602;2023-07-08T09:03:48;6.93;;;4.68;;
66327;SDS011;53133;52.862;6.602;2023-07-08T09:06:27;7.78;;;4.70;;
66327;SDS011;53133;52.862;6.602;2023-07-08T09:09:00;5.78;;;4.85;;
66327;SDS011;53133;52.862;6.602;2023-07-08T09:11:47;7.10;;;4.50;;
66327;SDS011;53133;52.862;6.602;2023-07-08T09:14:26;8.27;;;4.40;;
66327;SDS011;53133;52.862;6.602;2023-07-08T09:19:31;7.68;;;4.32;;
66327;SDS011;53133;52.862;6.602;2023-07-08T09:24:47;6.50;;;4.57;;
66327;SDS011;53133;52.862;6.602;2023-07-08T09:27:21;8.02;;;4.90;;
66327;SDS011;53133;52.862;6.602;2023-07-08T09:29:47;8.23;;;4.80;;
66327;SDS011;53133;52.862;6.602;2023-07-08T09:32:15;7.47;;;4.80;;
66327;SDS011;53133;52.862;6.602;2023-07-08T09:37:29;7.95;;;4.65;;
66327;SDS011;53133;52.862;6.602;2023-07-08T09:39:57;6.28;;;4.57;;
66327;SDS011;53133;52.862;6.602;2023-07-08T09:42:29;5.90;;;4.60;;
66327;SDS011;53133;52.862;6.602;2023-07-08T09:45:00;8.18;;;4.70;;
66327;SDS011;53133;52.862;6.602;2023-07-08T09:47:35;7.10;;;5.18;;
66327;SDS011;53133;52.862;6.602;2023-07-08T09:50:03;5.85;;;4.75;;
66327;SDS011;53133;52.862;6.602;2023-07-08T09:52:37;7.25;;;4.80;;
66327;SDS011;53133;52.862;6.602;2023-07-08T09:55:03;6.72;;;4.40;;
66327;SDS011;53133;52.862;6.602;2023-07-08T09:57:32;5.28;;;4.35;;
66327;SDS011;53133;52.862;6.602;2023-07-08T10:00:00;7.65;;;4.80;;
66327;SDS011;53133;52.862;6.602;2023-07-08T10:02:33;9.73;;;4.90;;
66327;SDS011;53133;52.862;6.602;2023-07-08T10:07:44;5.03;;;4.50;;
66327;SDS011;53133;52.862;6.602;2023-07-08T10:10:12;7.07;;;4.80;;
66327;SDS011;53133;52.862;6.602;2023-07-08T10:12:41;10.77;;;4.78;;
66327;SDS011;53133;52.862;6.602;2023-07-08T10:18:03;5.45;;;4.88;;
66327;SDS011;53133;52.862;6.602;2023-07-08T10:20:33;7.72;;;4.40;;
66327;SDS011;53133;52.862;6.602;2023-07-08T10:26:10;8.95;;;4.85;;
66327;SDS011;53133;52.862;6.602;2023-07-08T10:31:40;7.53;;;4.82;;
66327;SDS011;53133;52.862;6.602;2023-07-08T10:40:01;7.93;;;5.25;;
66327;SDS011;53133;52.862;6.602;2023-07-08T10:45:41;5.18;;;4.53;;
66327;SDS011;53133;52.862;6.602;2023-07-08T10:51:21;5.28;;;4.65;;
66327;SDS011;53133;52.862;6.602;2023-07-08T10:54:10;5.88;;;4.40;;
66327;SDS011;53133;52.862;6.602;2023-07-08T10:56:54;5.40;;;4.65;;
66327;SDS011;53133;52.862;6.602;2023-07-08T11:05:12;5.13;;;4.10;;
66327;SDS011;53133;52.862;6.602;2023-07-08T11:07:43;5.40;;;4.57;;
66327;SDS011;53133;52.862;6.602;2023-07-08T11:10:27;7.55;;;4.65;;
66327;SDS011;53133;52.862;6.602;2023-07-08T11:13:01;7.38;;;4.95;;
66327;SDS011;53133;52.862;6.602;2023-07-08T11:15:32;5.70;;;4.10;;
66327;SDS011;53133;52.862;6.602;2023-07-08T11:20:50;6.25;;;4.80;;
66327;SDS011;53133;52.862;6.602;2023-07-08T11:28:53;5.32;;;4.47;;
66327;SDS011;53133;52.862;6.602;2023-07-08T11:31:22;6.70;;;4.60;;
66327;SDS011;53133;52.862;6.602;2023-07-08T11:33:49;5.65;;;4.47;;
66327;SDS011;53133;52.862;6.602;2023-07-08T11:36:15;6.38;;;5.03;;
66327;SDS011;53133;52.862;6.602;2023-07-08T11:38:49;5.80;;;4.50;;
66327;SDS011;53133;52.862;6.602;2023-07-08T11:41:18;9.77;;;4.90;;
66327;SDS011;53133;52.862;6.602;2023-07-08T11:43:50;7.03;;;4.70;;
66327;SDS011;53133;52.862;6.602;2023-07-08T11:46:26;6.65;;;4.30;;
66327;SDS011;53133;52.862;6.602;2023-07-08T11:49:00;6.88;;;4.93;;
66327;SDS011;53133;52.862;6.602;2023-07-08T11:59:37;5.00;;;4.50;;
66327;SDS011;53133;52.862;6.602;2023-07-08T12:02:12;5.88;;;4.70;;
66327;SDS011;53133;52.862;6.602;2023-07-08T12:04:52;6.88;;;4.30;;
66327;SDS011;53133;52.862;6.602;2023-07-08T12:07:22;6.07;;;4.35;;
66327;SDS011;53133;52.862;6.602;2023-07-08T12:12:36;5.32;;;4.75;;
66327;SDS011;53133;52.862;6.602;2023-07-08T12:17:41;7.43;;;4.82;;
66327;SDS011;53133;52.862;6.602;2023-07-08T12:20:18;5.88;;;4.97;;
66327;SDS011;53133;52.862;6.602;2023-07-08T12:22:53;6.65;;;4.57;;
66327;SDS011;53133;52.862;6.602;2023-07-08T12:25:21;5.55;;;4.82;;
66327;SDS011;53133;52.862;6.602;2023-07-08T12:27:50;7.68;;;5.50;;
66327;SDS011;53133;52.862;6.602;2023-07-08T12:30:16;6.15;;;5.28;;
66327;SDS011;53133;52.862;6.602;2023-07-08T12:32:42;6.57;;;5.20;;
66327;SDS011;53133;52.862;6.602;2023-07-08T12:35:26;8.85;;;5.20;;
66327;SDS011;53133;52.862;6.602;2023-07-08T12:38:00;7.45;;;5.03;;
66327;SDS011;53133;52.862;6.602;2023-07-08T12:40:28;7.25;;;4.90;;
66327;SDS011;53133;52.862;6.602;2023-07-08T12:42:55;9.77;;;5.30;;
66327;SDS011;53133;52.862;6.602;2023-07-08T12:45:24;7.90;;;5.45;;
66327;SDS011;53133;52.862;6.602;2023-07-08T12:47:51;6.43;;;5.75;;
66327;SDS011;53133;52.862;6.602;2023-07-08T12:50:16;6.57;;;5.50;;
66327;SDS011;53133;52.862;6.602;2023-07-08T12:52:43;7.15;;;6.03;;
66327;SDS011;53133;52.862;6.602;2023-07-08T12:55:10;7.88;;;5.78;;
66327;SDS011;53133;52.862;6.602;2023-07-08T12:57:37;8.88;;;5.78;;
66327;SDS011;53133;52.862;6.602;2023-07-08T13:00:05;6.55;;;5.40;;
66327;SDS011;53133;52.862;6.602;2023-07-08T13:02:43;7.93;;;5.57;;
66327;SDS011;53133;52.862;6.602;2023-07-08T13:05:11;8.35;;;6.07;;
66327;SDS011;53133;52.862;6.602;2023-07-08T13:07:41;8.05;;;5.75;;
66327;SDS011;53133;52.862;6.602;2023-07-08T13:10:14;8.00;;;6.15;;
66327;SDS011;53133;52.862;6.602;2023-07-08T13:12:45;9.20;;;5.75;;
66327;SDS011;53133;52.862;6.602;2023-07-08T13:15:21;7.78;;;6.30;;
66327;SDS011;53133;52.862;6.602;2023-07-08T13:17:55;7.55;;;6.22;;
66327;SDS011;53133;52.862;6.602;2023-07-08T13:20:21;8.68;;;6.05;;
66327;SDS011;53133;52.862;6.602;2023-07-08T13:22:51;6.47;;;5.65;;
66327;SDS011;53133;52.862;6.602;2023-07-08T13:25:20;7.95;;;6.15;;
66327;SDS011;53133;52.862;6.602;2023-07-08T13:27:56;7.20;;;6.00;;
66327;SDS011;53133;52.862;6.602;2023-07-08T13:30:23;8.20;;;5.85;;
66327;SDS011;53133;52.862;6.602;2023-07-08T13:32:54;7.93;;;6.40;;
66327;SDS011;53133;52.862;6.602;2023-07-08T13:35:25;8.85;;;5.95;;
66327;SDS011;53133;52.862;6.602;2023-07-08T13:37:55;10.77;;;6.07;;
66327;SDS011;53133;52.862;6.602;2023-07-08T13:40:21;7.97;;;6.38;;
66327;SDS011;53133;52.862;6.602;2023-07-08T13:42:48;8.77;;;5.65;;
66327;SDS011;53133;52.862;6.602;2023-07-08T13:45:20;9.68;;;6.45;;
66327;SDS011;53133;52.862;6.602;2023-07-08T13:48:01;8.55;;;6.25;;
66327;SDS011;53133;52.862;6.602;2023-07-08T13:50:40;10.82;;;6.07;;
66327;SDS011;53133;52.862;6.602;2023-07-08T13:54:11;9.02;;;6.13;;
66327;SDS011;53133;52.862;6.602;2023-07-08T13:56:11;7.47;;;6.40;;
66327;SDS011;53133;52.862;6.602;2023-07-08T13:58:47;7.65;;;5.88;;
66327;SDS011;53133;52.862;6.602;2023-07-08T14:01:16;7.22;;;6.32;;
66327;SDS011;53133;52.862;6.602;2023-07-08T14:03:47;8.77;;;6.32;;
66327;SDS011;53133;52.862;6.602;2023-07-08T14:06:14;7.63;;;6.38;;
66327;SDS011;53133;52.862;6.602;2023-07-08T14:08:40;7.10;;;6.40;;
66327;SDS011;53133;52.862;6.602;2023-07-08T14:11:06;8.95;;;6.75;;
66327;SDS011;53133;52.862;6.602;2023-07-08T14:13:32;9.27;;;6.82;;
66327;SDS011;53133;52.862;6.602;2023-07-08T14:15:59;8.07;;;6.82;;
66327;SDS011;53133;52.862;6.602;2023-07-08T14:18:25;8.95;;;6.80;;
66327;SDS011;53133;52.862;6.602;2023-07-08T14:20:51;9.77;;;6.40;;
66327;SDS011;53133;52.862;6.602;2023-07-08T14:23:17;8.60;;;6.25;;
66327;SDS011;53133;52.862;6.602;2023-07-08T14:25:44;8.90;;;6.30;;
66327;SDS011;53133;52.862;6.602;2023-07-08T14:28:09;9.52;;;6.65;;
66327;SDS011;53133;52.862;6.602;2023-07-08T14:30:36;11.18;;;6.70;;
66327;SDS011;53133;52.862;6.602;2023-07-08T14:33:10;8.10;;;6.40;;
66327;SDS011;53133;52.862;6.602;2023-07-08T14:35:36;9.85;;;6.60;;
66327;SDS011;53133;52.862;6.602;2023-07-08T14:38:08;9.38;;;6.45;;
66327;SDS011;53133;52.862;6.602;2023-07-08T14:40:36;9.77;;;6.50;;
66327;SDS011;53133;52.862;6.602;2023-07-08T14:43:03;7.70;;;6.22;;
66327;SDS011;53133;52.862;6.602;2023-07-08T14:45:33;10.02;;;6.20;;
66327;SDS011;53133;52.862;6.602;2023-07-08T14:48:09;7.30;;;6.15;;
66327;SDS011;53133;52.862;6.602;2023-07-08T14:50:36;7.65;;;6.20;;
66327;SDS011;53133;52.862;6.602;2023-07-08T14:53:02;11.60;;;6.65;;
66327;SDS011;53133;52.862;6.602;2023-07-08T14:55:28;9.15;;;6.53;;
66327;SDS011;53133;52.862;6.602;2023-07-08T14:57:54;9.95;;;6.15;;
66327;SDS011;53133;52.862;6.602;2023-07-08T15:00:21;9.63;;;7.00;;
66327;SDS011;53133;52.862;6.602;2023-07-08T15:02:48;9.75;;;6.50;;
66327;SDS011;53133;52.862;6.602;2023-07-08T15:05:20;7.85;;;6.15;;
66327;SDS011;53133;52.862;6.602;2023-07-08T15:07:48;9.63;;;6.72;;
66327;SDS011;53133;52.862;6.602;2023-07-08T15:10:14;9.45;;;6.32;;
66327;SDS011;53133;52.862;6.602;2023-07-08T15:12:40;10.38;;;6.53;;
66327;SDS011;53133;52.862;6.602;2023-07-08T15:15:13;8.68;;;7.00;;
66327;SDS011;53133;52.862;6.602;2023-07-08T15:17:40;10.48;;;6.55;;
66327;SDS011;53133;52.862;6.602;2023-07-08T15:20:09;8.85;;;7.05;;
66327;SDS011;53133;52.862;6.602;2023-07-08T15:22:38;8.27;;;6.70;;
66327;SDS011;53133;52.862;6.602;2023-07-08T15:25:04;8.10;;;6.63;;
66327;SDS011;53133;52.862;6.602;2023-07-08T15:27:31;9.60;;;6.88;;
66327;SDS011;53133;52.862;6.602;2023-07-08T15:29:57;8.07;;;6.18;;
66327;SDS011;53133;52.862;6.602;2023-07-08T15:32:22;8.02;;;6.50;;
66327;SDS011;53133;52.862;6.602;2023-07-08T15:34:48;11.48;;;6.72;;
66327;SDS011;53133;52.862;6.602;2023-07-08T15:37:14;9.65;;;6.65;;
66327;SDS011;53133;52.862;6.602;2023-07-08T15:39:39;10.18;;;6.90;;
66327;SDS011;53133;52.862;6.602;2023-07-08T15:42:08;10.57;;;6.75;;
66327;SDS011;53133;52.862;6.602;2023-07-08T15:44:38;8.00;;;6.50;;
66327;SDS011;53133;52.862;6.602;2023-07-08T15:47:04;10.23;;;6.80;;
66327;SDS011;53133;52.862;6.602;2023-07-08T15:49:31;8.20;;;6.43;;
66327;SDS011;53133;52.862;6.602;2023-07-08T15:51:58;9.80;;;7.00;;
66327;SDS011;53133;52.862;6.602;2023-07-08T15:54:24;9.40;;;6.80;;
66327;SDS011;53133;52.862;6.602;2023-07-08T15:56:51;9.23;;;6.40;;
66327;SDS011;53133;52.862;6.602;2023-07-08T15:59:23;9.30;;;7.80;;
66327;SDS011;53133;52.862;6.602;2023-07-08T16:01:51;10.73;;;8.98;;
66327;SDS011;53133;52.862;6.602;2023-07-08T16:04:25;9.68;;;7.80;;
66327;SDS011;53133;52.862;6.602;2023-07-08T16:06:57;8.90;;;6.87;;
66327;SDS011;53133;52.862;6.602;2023-07-08T16:09:23;13.02;;;7.72;;